Time;durP1;ratioP1;P1;durP2;ratioP2;P2;SDS_P1;SDS_P2;PMS_P1;PMS_P2;Temp;Humidity;BMP_temperature;BMP_pressure;BME280_temperature;BME280_humidity;BME280_pressure;Samples;Min_cycle;Max_cycle;Signal;HPM_P1;HPM_P2
2022/04/05 00:00:49;;;;;;;;;;;21.10;30.60;;;;;;466095;256;1050;-39
2022/04/05 00:02:50;;;;;;;;;;;21.10;30.60;;;;;;465825;256;1381;-39
2022/04/05 00:04:52;;;;;;;;;;;21.10;30.60;;;;;;466086;256;1089;-39
2022/04/05 00:06:53;;;;;;;;;;;21.10;30.60;;;;;;465960;256;1169;-39
2022/04/05 00:08:54;;;;;;;;;;;21.00;30.60;;;;;;465666;256;1212;-39
2022/04/05 00:10:56;;;;;;;;;;;21.00;30.70;;;;;;465607;256;1254;-39
2022/04/05 00:12:58;;;;;;;;;;;21.10;30.70;;;;;;466088;256;2202;-39
2022/04/05 00:14:59;;;;;;;;;;;21.10;30.60;;;;;;466087;256;1061;-39
2022/04/05 00:17:00;;;;;;;;;;;21.10;30.60;;;;;;465986;256;1264;-39
2022/04/05 00:19:02;;;;;;;;;;;21.10;30.70;;;;;;466142;256;1059;-39
2022/04/05 00:21:03;;;;;;;;;;;21.10;30.60;;;;;;466068;256;1255;-39
2022/04/05 00:23:04;;;;;;;;;;;21.10;30.60;;;;;;466055;256;1254;-39
2022/04/05 00:25:05;;;;;;;;;;;21.10;30.60;;;;;;466111;256;1092;-39
2022/04/05 00:27:07;;;;;;;;;;;21.10;30.70;;;;;;465957;256;1299;-39
2022/04/05 00:29:08;;;;;;;;;;;21.10;30.60;;;;;;465716;256;1053;-39
2022/04/05 00:31:10;;;;;;;;;;;21.10;30.70;;;;;;466019;256;1244;-39
2022/04/05 00:33:11;;;;;;;;;;;21.10;30.70;;;;;;465638;256;2150;-39
2022/04/05 00:35:12;;;;;;;;;;;21.10;30.70;;;;;;466063;256;1075;-39
2022/04/05 00:37:14;;;;;;;;;;;21.10;30.70;;;;;;465566;256;1217;-39
2022/04/05 00:39:15;;;;;;;;;;;21.10;30.70;;;;;;466099;256;1058;-39
2022/04/05 00:41:16;;;;;;;;;;;21.10;30.70;;;;;;465800;256;1271;-39
2022/04/05 00:43:18;;;;;;;;;;;21.10;30.60;;;;;;465686;256;1065;-39
2022/04/05 00:45:20;;;;;;;;;;;21.10;30.70;;;;;;465697;256;1070;-39
2022/04/05 00:47:20;;;;;;;;;;;21.10;30.60;;;;;;465888;256;1619;-39
2022/04/05 00:49:22;;;;;;;;;;;21.10;30.70;;;;;;465695;256;1056;-39
2022/04/05 00:51:23;;;;;;;;;;;21.10;30.70;;;;;;466052;256;1248;-39
2022/04/05 00:53:25;;;;;;;;;;;21.10;30.70;;;;;;466101;256;2189;-39
2022/04/05 00:55:26;;;;;;;;;;;21.10;30.70;;;;;;466080;256;1086;-39
2022/04/05 00:57:27;;;;;;;;;;;21.10;30.60;;;;;;465670;256;1026;-39
2022/04/05 00:59:29;;;;;;;;;;;21.10;30.60;;;;;;466080;256;1257;-39
2022/04/05 01:01:30;;;;;;;;;;;21.10;30.60;;;;;;466062;256;1063;-39
2022/04/05 01:03:31;;;;;;;;;;;21.10;30.60;;;;;;465871;256;1173;-39
2022/04/05 01:05:33;;;;;;;;;;;21.10;30.60;;;;;;466051;256;1049;-39
2022/04/05 01:07:34;;;;;;;;;;;21.10;30.60;;;;;;465884;256;1335;-39
2022/04/05 01:09:35;;;;;;;;;;;21.10;30.60;;;;;;466085;256;1097;-39
2022/04/05 01:11:37;;;;;;;;;;;21.10;30.60;;;;;;465665;256;1202;-39
2022/04/05 01:13:39;;;;;;;;;;;21.10;30.60;;;;;;466054;256;2143;-39
2022/04/05 01:15:40;;;;;;;;;;;21.10;30.60;;;;;;465674;256;1074;-39
2022/04/05 01:17:41;;;;;;;;;;;21.10;30.70;;;;;;466038;256;1337;-39
2022/04/05 01:19:43;;;;;;;;;;;21.10;30.70;;;;;;466076;256;1041;-39
2022/04/05 01:21:44;;;;;;;;;;;21.10;30.70;;;;;;465622;256;1077;-39
2022/04/05 01:23:45;;;;;;;;;;;21.10;30.70;;;;;;466096;256;965;-39
2022/04/05 01:25:47;;;;;;;;;;;21.10;30.70;;;;;;466059;256;1156;-39
2022/04/05 01:27:48;;;;;;;;;;;21.10;30.70;;;;;;466088;256;1250;-39
2022/04/05 01:29:49;;;;;;;;;;;21.10;30.70;;;;;;465695;256;1097;-39
2022/04/05 01:31:51;;;;;;;;;;;21.10;30.70;;;;;;465608;256;1161;-39
2022/04/05 01:33:52;;;;;;;;;;;21.00;30.80;;;;;;465857;256;2158;-39
2022/04/05 01:35:53;;;;;;;;;;;21.10;30.70;;;;;;465994;256;1200;-39
2022/04/05 01:37:55;;;;;;;;;;;21.10;30.70;;;;;;466041;256;1277;-39
2022/04/05 01:39:56;;;;;;;;;;;21.10;30.60;;;;;;465933;256;1043;-39
2022/04/05 01:41:57;;;;;;;;;;;21.10;30.60;;;;;;465751;256;1400;-39
2022/04/05 01:43:59;;;;;;;;;;;21.10;30.60;;;;;;465646;256;1084;-39
2022/04/05 01:46:00;;;;;;;;;;;21.10;30.70;;;;;;465721;256;1295;-39
2022/04/05 01:48:01;;;;;;;;;;;21.10;30.80;;;;;;465869;256;1216;-39
2022/04/05 01:50:03;;;;;;;;;;;21.10;30.80;;;;;;466074;256;1008;-39
2022/04/05 01:52:04;;;;;;;;;;;21.10;30.80;;;;;;465986;256;1205;-39
2022/04/05 01:54:06;;;;;;;;;;;21.10;30.80;;;;;;466065;256;2119;-39
2022/04/05 01:56:07;;;;;;;;;;;21.10;30.80;;;;;;465647;256;1155;-39
2022/04/05 01:58:08;;;;;;;;;;;21.10;30.80;;;;;;465630;256;1053;-39
2022/04/05 02:00:14;;;;;;;;;;;21.10;30.80;;;;;;465841;256;1251;-39
2022/04/05 02:02:12;;;;;;;;;;;21.10;30.70;;;;;;465241;256;1507;-39
2022/04/05 02:04:13;;;;;;;;;;;21.10;30.70;;;;;;465856;256;1150;-39
2022/04/05 02:06:14;;;;;;;;;;;21.10;30.70;;;;;;465870;256;1161;-39
2022/04/05 02:08:17;;;;;;;;;;;21.10;30.80;;;;;;465690;256;1108;-39
2022/04/05 02:10:17;;;;;;;;;;;21.10;30.80;;;;;;465696;256;1931;-39
2022/04/05 02:12:18;;;;;;;;;;;21.10;30.80;;;;;;465738;256;1224;-39
2022/04/05 02:14:20;;;;;;;;;;;21.00;30.80;;;;;;465663;256;2115;-39
2022/04/05 02:16:21;;;;;;;;;;;21.10;30.80;;;;;;466008;256;1351;-39
2022/04/05 02:18:22;;;;;;;;;;;21.10;30.80;;;;;;465656;256;1201;-39
2022/04/05 02:20:24;;;;;;;;;;;21.10;30.80;;;;;;465783;256;1079;-39
2022/04/05 02:22:25;;;;;;;;;;;21.10;30.80;;;;;;465612;256;1233;-39
2022/04/05 02:24:26;;;;;;;;;;;21.10;30.80;;;;;;466063;256;1077;-39
2022/04/05 02:26:27;;;;;;;;;;;21.10;30.80;;;;;;465606;256;1174;-39
2022/04/05 02:28:29;;;;;;;;;;;21.00;30.80;;;;;;465694;256;1065;-39
2022/04/05 02:30:30;;;;;;;;;;;21.10;30.80;;;;;;465691;256;1249;-39
2022/04/05 02:32:32;;;;;;;;;;;21.10;30.70;;;;;;466052;256;1223;-39
2022/04/05 02:34:33;;;;;;;;;;;21.10;30.80;;;;;;465889;256;2216;-39
2022/04/05 02:36:34;;;;;;;;;;;21.10;30.80;;;;;;465964;256;1363;-39
2022/04/05 02:38:36;;;;;;;;;;;21.10;30.80;;;;;;465711;256;1080;-39
2022/04/05 02:40:37;;;;;;;;;;;21.10;30.80;;;;;;466089;256;1061;-39
2022/04/05 02:42:39;;;;;;;;;;;21.10;30.90;;;;;;466079;256;1273;-39
2022/04/05 02:44:40;;;;;;;;;;;21.00;30.80;;;;;;465708;256;1084;-39
2022/04/05 02:46:41;;;;;;;;;;;21.10;30.80;;;;;;465629;256;1329;-39
2022/04/05 02:48:45;;;;;;;;;;;21.10;30.80;;;;;;466074;256;1133;-39
2022/04/05 02:50:45;;;;;;;;;;;21.10;30.80;;;;;;465548;256;2307;-39
2022/04/05 02:52:46;;;;;;;;;;;21.10;30.80;;;;;;466095;256;1058;-39
2022/04/05 02:54:47;;;;;;;;;;;21.10;30.80;;;;;;465691;256;2205;-39
2022/04/05 02:56:49;;;;;;;;;;;21.10;30.80;;;;;;465586;256;1188;-39
2022/04/05 02:58:50;;;;;;;;;;;21.10;30.80;;;;;;465832;256;1052;-39
2022/04/05 03:00:52;;;;;;;;;;;21.10;30.80;;;;;;466090;256;1323;-39
2022/04/05 03:02:53;;;;;;;;;;;21.10;30.80;;;;;;466107;256;1059;-39
2022/04/05 03:04:55;;;;;;;;;;;21.10;30.70;;;;;;465634;256;1304;-39
2022/04/05 03:06:56;;;;;;;;;;;21.10;30.70;;;;;;465796;256;1231;-39
2022/04/05 03:08:58;;;;;;;;;;;21.10;30.70;;;;;;465905;256;1042;-39
2022/04/05 03:11:00;;;;;;;;;;;21.10;30.70;;;;;;465677;256;1191;-39
2022/04/05 03:13:01;;;;;;;;;;;21.10;30.80;;;;;;465628;256;2284;-39
2022/04/05 03:15:02;;;;;;;;;;;21.10;30.80;;;;;;466140;256;2201;-39
2022/04/05 03:17:04;;;;;;;;;;;21.10;30.80;;;;;;465605;256;1219;-39
2022/04/05 03:19:05;;;;;;;;;;;21.10;30.80;;;;;;466113;256;1070;-39
2022/04/05 03:21:06;;;;;;;;;;;21.10;30.80;;;;;;465671;247;1300;-39
2022/04/05 03:23:07;;;;;;;;;;;21.10;30.80;;;;;;465687;256;1375;-39
2022/04/05 03:25:09;;;;;;;;;;;21.10;30.80;;;;;;466047;256;1088;-39
2022/04/05 03:27:10;;;;;;;;;;;21.10;30.80;;;;;;466030;256;1118;-39
2022/04/05 03:29:11;;;;;;;;;;;21.10;30.80;;;;;;466113;256;997;-39
2022/04/05 03:31:13;;;;;;;;;;;21.10;30.90;;;;;;465622;256;1201;-39
2022/04/05 03:33:15;;;;;;;;;;;21.10;30.80;;;;;;466088;256;1183;-39
2022/04/05 03:35:16;;;;;;;;;;;21.10;30.80;;;;;;465654;256;2202;-39
2022/04/05 03:37:17;;;;;;;;;;;21.10;30.80;;;;;;465782;256;1229;-39
2022/04/05 03:39:19;;;;;;;;;;;21.10;30.80;;;;;;466124;256;1063;-39
2022/04/05 03:41:21;;;;;;;;;;;21.10;30.80;;;;;;466080;256;1181;-39
2022/04/05 03:43:21;;;;;;;;;;;21.10;30.90;;;;;;465650;256;1752;-39
2022/04/05 03:45:23;;;;;;;;;;;21.10;30.90;;;;;;465674;256;1066;-39
2022/04/05 03:47:26;;;;;;;;;;;21.10;30.90;;;;;;466084;256;1107;-39
2022/04/05 03:49:25;;;;;;;;;;;21.10;30.80;;;;;;465615;256;2163;-39
2022/04/05 03:51:27;;;;;;;;;;;21.10;30.80;;;;;;465691;256;1226;-39
2022/04/05 03:53:28;;;;;;;;;;;21.10;30.80;;;;;;466108;256;1070;-39
2022/04/05 03:55:29;;;;;;;;;;;21.10;30.80;;;;;;465668;256;2190;-39
2022/04/05 03:57:31;;;;;;;;;;;21.10;30.90;;;;;;466016;256;1183;-39
2022/04/05 03:59:32;;;;;;;;;;;21.10;30.80;;;;;;465766;256;1212;-39
2022/04/05 04:01:33;;;;;;;;;;;21.10;30.80;;;;;;466025;256;1439;-39
2022/04/05 04:03:35;;;;;;;;;;;21.10;30.80;;;;;;465689;256;1053;-39
2022/04/05 04:05:36;;;;;;;;;;;21.10;30.80;;;;;;465894;256;1292;-39
2022/04/05 04:07:37;;;;;;;;;;;21.10;30.80;;;;;;466006;256;1582;-39
2022/04/05 04:09:38;;;;;;;;;;;21.10;30.80;;;;;;465834;256;1086;-39
2022/04/05 04:11:40;;;;;;;;;;;21.00;30.80;;;;;;465946;256;1316;-39
2022/04/05 04:13:42;;;;;;;;;;;21.10;30.90;;;;;;465749;256;1059;-39
2022/04/05 04:15:43;;;;;;;;;;;21.10;30.90;;;;;;465954;256;2127;-39
2022/04/05 04:17:44;;;;;;;;;;;21.10;30.80;;;;;;465932;256;1252;-39
2022/04/05 04:19:45;;;;;;;;;;;21.10;30.80;;;;;;465993;256;1186;-39
2022/04/05 04:21:47;;;;;;;;;;;21.10;30.80;;;;;;465537;256;1312;-39
2022/04/05 04:23:48;;;;;;;;;;;21.10;30.80;;;;;;465681;256;1091;-39
2022/04/05 04:25:49;;;;;;;;;;;21.10;30.80;;;;;;465974;256;1057;-39
2022/04/05 04:27:51;;;;;;;;;;;21.10;30.80;;;;;;465576;256;1077;-39
2022/04/05 04:29:52;;;;;;;;;;;21.10;30.80;;;;;;466019;256;1083;-39
2022/04/05 04:31:53;;;;;;;;;;;21.10;30.80;;;;;;465694;256;1596;-39
2022/04/05 04:33:55;;;;;;;;;;;21.10;30.80;;;;;;465697;256;1092;-39
2022/04/05 04:35:56;;;;;;;;;;;21.10;30.80;;;;;;465792;256;2201;-39
2022/04/05 04:37:58;;;;;;;;;;;21.10;30.80;;;;;;465589;256;1222;-39
2022/04/05 04:39:59;;;;;;;;;;;21.10;30.80;;;;;;465489;256;1910;-39
2022/04/05 04:42:00;;;;;;;;;;;21.10;30.90;;;;;;465511;256;1340;-39
2022/04/05 04:44:01;;;;;;;;;;;21.10;30.80;;;;;;465469;256;1102;-39
2022/04/05 04:46:03;;;;;;;;;;;21.10;30.80;;;;;;465797;256;1261;-39
2022/04/05 04:48:04;;;;;;;;;;;21.10;30.80;;;;;;465479;256;2580;-39
2022/04/05 04:50:05;;;;;;;;;;;21.10;30.80;;;;;;465911;256;1075;-39
2022/04/05 04:52:07;;;;;;;;;;;21.10;30.80;;;;;;465455;256;1402;-39
2022/04/05 04:54:08;;;;;;;;;;;21.10;30.80;;;;;;465810;256;1187;-39
2022/04/05 04:56:09;;;;;;;;;;;21.10;30.80;;;;;;465293;256;2210;-39
2022/04/05 04:58:10;;;;;;;;;;;21.10;30.80;;;;;;465467;256;1434;-39
2022/04/05 05:00:12;;;;;;;;;;;21.10;30.80;;;;;;465532;256;1082;-39
2022/04/05 05:02:13;;;;;;;;;;;21.00;30.80;;;;;;465640;256;1196;-39
2022/04/05 05:04:14;;;;;;;;;;;21.00;30.90;;;;;;465611;256;1083;-39
2022/04/05 05:06:16;;;;;;;;;;;21.10;30.90;;;;;;465571;256;1527;-39
2022/04/05 05:08:17;;;;;;;;;;;21.10;30.90;;;;;;465688;256;1122;-39
2022/04/05 05:10:18;;;;;;;;;;;21.10;30.90;;;;;;465479;256;1221;-39
2022/04/05 05:12:20;;;;;;;;;;;21.10;30.90;;;;;;465565;256;1172;-39
2022/04/05 05:14:21;;;;;;;;;;;21.10;30.90;;;;;;465359;256;1221;-39
2022/04/05 05:16:23;;;;;;;;;;;21.10;30.80;;;;;;465407;256;2126;-39
2022/04/05 05:18:24;;;;;;;;;;;21.10;30.90;;;;;;465330;256;1191;-39
2022/04/05 05:20:25;;;;;;;;;;;21.10;30.90;;;;;;465274;256;1335;-39
2022/04/05 05:22:27;;;;;;;;;;;21.10;30.90;;;;;;465359;256;1480;-39
2022/04/05 05:24:28;;;;;;;;;;;21.10;30.90;;;;;;465876;256;1169;-39
2022/04/05 05:26:29;;;;;;;;;;;21.10;30.80;;;;;;465480;256;1344;-39
2022/04/05 05:28:31;;;;;;;;;;;21.10;30.90;;;;;;465724;256;1094;-39
2022/04/05 05:30:32;;;;;;;;;;;21.10;30.90;;;;;;465372;256;1275;-39
2022/04/05 05:32:33;;;;;;;;;;;21.10;30.90;;;;;;465315;256;1243;-39
2022/04/05 05:34:34;;;;;;;;;;;21.00;30.90;;;;;;465292;256;1154;-39
2022/04/05 05:36:36;;;;;;;;;;;21.00;30.90;;;;;;465535;256;2129;-39
2022/04/05 05:38:37;;;;;;;;;;;21.10;30.90;;;;;;465377;256;1094;-39
2022/04/05 05:40:38;;;;;;;;;;;21.00;30.90;;;;;;465150;256;1146;-39
2022/04/05 05:42:40;;;;;;;;;;;21.10;30.90;;;;;;465185;256;1242;-39
2022/04/05 05:44:41;;;;;;;;;;;21.10;30.90;;;;;;465199;256;1313;-39
2022/04/05 05:46:42;;;;;;;;;;;21.10;30.90;;;;;;465281;256;1209;-39
2022/04/05 05:48:44;;;;;;;;;;;21.10;30.90;;;;;;465365;256;1244;-39
2022/04/05 05:50:45;;;;;;;;;;;21.10;30.90;;;;;;465303;256;1370;-39
2022/04/05 05:52:46;;;;;;;;;;;21.10;30.90;;;;;;465229;256;1178;-39
2022/04/05 05:54:49;;;;;;;;;;;21.10;30.90;;;;;;465252;256;1266;-39
2022/04/05 05:56:49;;;;;;;;;;;21.10;30.90;;;;;;465019;255;2194;-39
2022/04/05 05:58:51;;;;;;;;;;;21.10;30.90;;;;;;465300;256;1101;-39
2022/04/05 06:00:52;;;;;;;;;;;21.00;30.90;;;;;;465271;256;1357;-39
2022/04/05 06:02:55;;;;;;;;;;;21.00;30.90;;;;;;465275;256;1219;-39
2022/04/05 06:04:55;;;;;;;;;;;21.00;31.00;;;;;;465226;255;2409;-39
2022/04/05 06:06:56;;;;;;;;;;;21.00;30.90;;;;;;465289;256;1356;-39
2022/04/05 06:08:57;;;;;;;;;;;21.10;30.90;;;;;;465187;256;1138;-39
2022/04/05 06:10:59;;;;;;;;;;;21.10;30.90;;;;;;465108;256;1364;-39
2022/04/05 06:13:00;;;;;;;;;;;21.10;30.90;;;;;;465313;256;1211;-39
2022/04/05 06:15:01;;;;;;;;;;;21.10;30.90;;;;;;465109;256;2193;-39
2022/04/05 06:17:02;;;;;;;;;;;21.10;30.90;;;;;;465042;256;1090;-39
2022/04/05 06:19:04;;;;;;;;;;;21.10;30.80;;;;;;465039;256;1056;-39
2022/04/05 06:21:05;;;;;;;;;;;21.10;30.80;;;;;;465134;256;1120;-39
2022/04/05 06:23:06;;;;;;;;;;;21.10;30.80;;;;;;465213;256;1229;-39
2022/04/05 06:25:08;;;;;;;;;;;21.10;30.80;;;;;;465179;256;1080;-39
2022/04/05 06:27:09;;;;;;;;;;;21.10;30.80;;;;;;465089;256;1077;-39
2022/04/05 06:29:10;;;;;;;;;;;21.10;30.80;;;;;;465153;256;1121;-39
2022/04/05 06:31:12;;;;;;;;;;;21.10;30.90;;;;;;465173;256;1339;-39
2022/04/05 06:33:13;;;;;;;;;;;21.10;30.90;;;;;;465188;256;1165;-39
2022/04/05 06:35:14;;;;;;;;;;;21.10;30.90;;;;;;465254;256;2217;-39
2022/04/05 06:37:16;;;;;;;;;;;21.10;30.90;;;;;;465087;256;1275;-39
2022/04/05 06:39:17;;;;;;;;;;;21.10;30.90;;;;;;465369;256;1133;-39
2022/04/05 06:41:19;;;;;;;;;;;21.10;31.00;;;;;;465080;256;1266;-39
2022/04/05 06:43:21;;;;;;;;;;;21.10;30.90;;;;;;465090;256;1202;-39
2022/04/05 06:45:22;;;;;;;;;;;21.10;30.90;;;;;;464811;256;2198;-39
2022/04/05 06:47:23;;;;;;;;;;;21.10;31.00;;;;;;465057;256;1334;-39
2022/04/05 06:49:24;;;;;;;;;;;21.10;30.90;;;;;;465077;256;1100;-39
2022/04/05 06:51:25;;;;;;;;;;;21.00;30.90;;;;;;465098;256;1260;-39
2022/04/05 06:53:27;;;;;;;;;;;21.00;30.90;;;;;;465117;256;1151;-39
2022/04/05 06:55:28;;;;;;;;;;;21.00;30.90;;;;;;464990;256;2138;-39
2022/04/05 06:57:29;;;;;;;;;;;21.00;31.00;;;;;;464982;256;1209;-39
2022/04/05 06:59:31;;;;;;;;;;;21.10;30.90;;;;;;464878;256;1299;-39
2022/04/05 07:01:32;;;;;;;;;;;21.10;30.90;;;;;;464828;256;1210;-39
2022/04/05 07:03:34;;;;;;;;;;;21.10;30.90;;;;;;464931;256;1115;-39
2022/04/05 07:05:36;;;;;;;;;;;21.10;30.90;;;;;;464782;256;1127;-39
2022/04/05 07:07:36;;;;;;;;;;;21.10;30.90;;;;;;464836;256;2262;-39
2022/04/05 07:09:38;;;;;;;;;;;21.10;30.90;;;;;;464765;256;1129;-39
2022/04/05 07:11:39;;;;;;;;;;;21.10;30.90;;;;;;465371;256;2165;-39
2022/04/05 07:13:40;;;;;;;;;;;21.10;30.80;;;;;;465118;256;1131;-39
2022/04/05 07:15:42;;;;;;;;;;;21.10;30.90;;;;;;464786;256;2143;-39
2022/04/05 07:17:44;;;;;;;;;;;21.10;30.90;;;;;;464789;256;1510;-39
2022/04/05 07:19:45;;;;;;;;;;;21.10;30.90;;;;;;464700;256;1193;-39
2022/04/05 07:21:46;;;;;;;;;;;21.10;30.90;;;;;;464651;256;1131;-39
2022/04/05 07:23:48;;;;;;;;;;;21.10;30.80;;;;;;464762;256;1235;-39
2022/04/05 07:25:49;;;;;;;;;;;21.10;30.80;;;;;;464696;256;1404;-39
2022/04/05 07:27:51;;;;;;;;;;;21.10;30.80;;;;;;464734;256;1169;-39
2022/04/05 07:29:51;;;;;;;;;;;21.10;30.80;;;;;;464864;256;2024;-39
2022/04/05 07:31:53;;;;;;;;;;;21.10;30.80;;;;;;465002;256;1359;-39
2022/04/05 07:33:54;;;;;;;;;;;21.10;30.80;;;;;;464901;256;1113;-39
2022/04/05 07:35:55;;;;;;;;;;;21.10;30.90;;;;;;464825;256;2427;-39
2022/04/05 07:37:56;;;;;;;;;;;21.10;30.80;;;;;;465009;256;1238;-39
2022/04/05 07:39:59;;;;;;;;;;;21.10;30.90;;;;;;464930;256;1113;-39
2022/04/05 07:42:00;;;;;;;;;;;21.00;30.90;;;;;;464847;255;1415;-39
2022/04/05 07:44:01;;;;;;;;;;;21.10;30.90;;;;;;464865;256;1091;-39
2022/04/05 07:46:03;;;;;;;;;;;21.10;30.90;;;;;;464797;256;1462;-39
2022/04/05 07:48:04;;;;;;;;;;;21.10;30.90;;;;;;464897;256;2406;-39
2022/04/05 07:50:05;;;;;;;;;;;21.10;30.90;;;;;;464862;256;1135;-39
2022/04/05 07:52:06;;;;;;;;;;;21.10;30.90;;;;;;464817;256;1245;-39
2022/04/05 07:54:08;;;;;;;;;;;21.10;30.90;;;;;;464964;256;1251;-39
2022/04/05 07:56:12;;;;;;;;;;;21.10;31.00;;;;;;464840;256;2241;-39
2022/04/05 07:58:10;;;;;;;;;;;21.10;30.90;;;;;;464547;256;2173;-39
2022/04/05 08:00:12;;;;;;;;;;;21.10;30.90;;;;;;464806;256;1095;-39
2022/04/05 08:02:13;;;;;;;;;;;21.00;30.90;;;;;;464784;256;1147;-39
2022/04/05 08:04:14;;;;;;;;;;;21.10;30.90;;;;;;464941;256;1130;-39
2022/04/05 08:06:16;;;;;;;;;;;21.10;30.90;;;;;;464788;256;1348;-39
2022/04/05 08:08:17;;;;;;;;;;;21.10;30.90;;;;;;464820;256;1208;-39
2022/04/05 08:10:18;;;;;;;;;;;21.10;30.80;;;;;;464860;256;1079;-39
2022/04/05 08:12:20;;;;;;;;;;;21.10;30.80;;;;;;464704;256;1231;-39
2022/04/05 08:14:23;;;;;;;;;;;21.10;30.90;;;;;;464965;256;1098;-39
2022/04/05 08:16:22;;;;;;;;;;;21.10;30.90;;;;;;464535;256;2232;-39
2022/04/05 08:18:24;;;;;;;;;;;21.10;31.00;;;;;;464767;256;1150;-39
2022/04/05 08:20:25;;;;;;;;;;;21.10;30.90;;;;;;464812;256;1185;-39
2022/04/05 08:22:26;;;;;;;;;;;21.10;30.90;;;;;;464296;256;1332;-39
2022/04/05 08:24:28;;;;;;;;;;;21.10;31.00;;;;;;464788;256;1178;-39
2022/04/05 08:26:29;;;;;;;;;;;21.00;30.90;;;;;;464815;256;1238;-39
2022/04/05 08:28:30;;;;;;;;;;;21.10;31.00;;;;;;465302;256;1308;-39
2022/04/05 08:30:31;;;;;;;;;;;21.10;31.00;;;;;;464887;256;1114;-39
2022/04/05 08:32:34;;;;;;;;;;;21.10;30.90;;;;;;464818;256;1181;-39
2022/04/05 08:34:35;;;;;;;;;;;21.10;30.90;;;;;;465034;256;2016;-39
2022/04/05 08:36:36;;;;;;;;;;;21.10;30.90;;;;;;464503;256;2146;-39
2022/04/05 08:38:38;;;;;;;;;;;21.10;31.00;;;;;;464897;256;1226;-39
2022/04/05 08:40:38;;;;;;;;;;;21.10;30.90;;;;;;464782;256;2100;-39
2022/04/05 08:42:40;;;;;;;;;;;21.10;30.90;;;;;;465607;256;1216;-39
2022/04/05 08:44:41;;;;;;;;;;;21.10;30.90;;;;;;464889;256;1116;-39
2022/04/05 08:46:42;;;;;;;;;;;21.10;30.90;;;;;;464728;256;1361;-39
2022/04/05 08:48:46;;;;;;;;;;;21.10;31.00;;;;;;464859;256;1128;-39
2022/04/05 08:50:45;;;;;;;;;;;21.10;31.00;;;;;;464487;255;2220;-39
2022/04/05 08:52:46;;;;;;;;;;;21.10;31.00;;;;;;464748;256;1153;-39
2022/04/05 08:54:47;;;;;;;;;;;21.00;31.00;;;;;;464765;256;1231;-39
2022/04/05 08:56:50;;;;;;;;;;;21.10;31.00;;;;;;464632;256;2205;-39
2022/04/05 08:58:50;;;;;;;;;;;21.10;31.00;;;;;;464634;256;2034;-39
2022/04/05 09:00:53;;;;;;;;;;;21.10;31.00;;;;;;464721;256;1160;-39
2022/04/05 09:02:54;;;;;;;;;;;21.10;30.90;;;;;;464757;256;1191;-39
2022/04/05 09:04:56;;;;;;;;;;;21.10;30.90;;;;;;464795;256;1158;-39
2022/04/05 09:06:57;;;;;;;;;;;21.10;30.90;;;;;;464702;256;1111;-39
2022/04/05 09:08:59;;;;;;;;;;;21.10;30.90;;;;;;464743;256;1181;-39
2022/04/05 09:11:00;;;;;;;;;;;21.10;30.90;;;;;;464726;256;1301;-39
2022/04/05 09:13:02;;;;;;;;;;;21.10;30.90;;;;;;464742;256;1459;-39
2022/04/05 09:15:03;;;;;;;;;;;21.10;30.90;;;;;;464889;256;1146;-39
2022/04/05 09:17:05;;;;;;;;;;;21.10;30.90;;;;;;464584;256;2197;-39
2022/04/05 09:19:06;;;;;;;;;;;21.10;30.90;;;;;;464930;256;1066;-39
2022/04/05 09:21:08;;;;;;;;;;;21.10;31.00;;;;;;464631;256;1117;-39
2022/04/05 09:23:09;;;;;;;;;;;21.10;30.90;;;;;;464712;256;1241;-39
2022/04/05 09:25:11;;;;;;;;;;;21.10;31.00;;;;;;464957;256;1208;-39
2022/04/05 09:27:12;;;;;;;;;;;21.10;31.00;;;;;;464797;256;1202;-39
2022/04/05 09:29:14;;;;;;;;;;;21.10;31.00;;;;;;464723;256;1119;-39
2022/04/05 09:31:15;;;;;;;;;;;21.10;31.00;;;;;;464539;256;2218;-39
2022/04/05 09:33:17;;;;;;;;;;;21.10;30.90;;;;;;464760;256;1143;-39
2022/04/05 09:35:18;;;;;;;;;;;21.10;31.00;;;;;;464671;256;2105;-39
2022/04/05 09:37:19;;;;;;;;;;;21.00;31.00;;;;;;464616;256;2257;-39
2022/04/05 09:39:20;;;;;;;;;;;21.10;31.10;;;;;;464914;256;1399;-39
2022/04/05 09:41:21;;;;;;;;;;;21.10;31.10;;;;;;464800;256;1175;-39
2022/04/05 09:43:23;;;;;;;;;;;21.10;31.10;;;;;;464729;256;1136;-39
2022/04/05 09:45:24;;;;;;;;;;;21.10;31.10;;;;;;464587;256;1326;-39
2022/04/05 09:47:25;;;;;;;;;;;21.10;31.10;;;;;;464601;256;1324;-39
2022/04/05 09:49:26;;;;;;;;;;;21.10;31.20;;;;;;464901;256;1151;-39
2022/04/05 09:51:28;;;;;;;;;;;21.10;31.10;;;;;;464775;256;1249;-39
2022/04/05 09:53:29;;;;;;;;;;;21.10;31.10;;;;;;464764;256;1179;-39
2022/04/05 09:55:31;;;;;;;;;;;21.10;31.10;;;;;;464726;256;1557;-39
2022/04/05 09:57:32;;;;;;;;;;;21.00;31.10;;;;;;464591;256;2190;-39
2022/04/05 09:59:33;;;;;;;;;;;21.10;31.20;;;;;;464780;256;1186;-39
2022/04/05 10:01:35;;;;;;;;;;;21.10;31.20;;;;;;464731;256;1138;-39
2022/04/05 10:03:36;;;;;;;;;;;21.10;31.20;;;;;;464973;256;1253;-39
2022/04/05 10:05:37;;;;;;;;;;;21.10;31.10;;;;;;464900;256;1068;-39
2022/04/05 10:07:39;;;;;;;;;;;21.10;31.10;;;;;;464957;256;1352;-39
2022/04/05 10:09:40;;;;;;;;;;;21.10;31.20;;;;;;464876;256;1277;-39
2022/04/05 10:11:41;;;;;;;;;;;21.10;31.20;;;;;;464951;256;1207;-39
2022/04/05 10:13:43;;;;;;;;;;;21.10;31.20;;;;;;464912;256;1108;-39
2022/04/05 10:15:44;;;;;;;;;;;21.10;31.20;;;;;;464846;256;1355;-39
2022/04/05 10:17:47;;;;;;;;;;;21.10;31.20;;;;;;464771;256;2205;-39
2022/04/05 10:19:47;;;;;;;;;;;21.10;31.20;;;;;;464835;255;2363;-39
2022/04/05 10:21:48;;;;;;;;;;;21.10;31.20;;;;;;464847;256;1376;-39
2022/04/05 10:23:49;;;;;;;;;;;21.00;31.20;;;;;;464858;256;1397;-39
2022/04/05 10:25:51;;;;;;;;;;;21.10;31.30;;;;;;464801;256;1230;-39
2022/04/05 10:27:52;;;;;;;;;;;21.00;31.20;;;;;;465549;256;1094;-39
2022/04/05 10:29:54;;;;;;;;;;;21.10;31.20;;;;;;464760;256;1232;-39
2022/04/05 10:31:55;;;;;;;;;;;21.10;31.20;;;;;;464649;256;1354;-39
2022/04/05 10:33:56;;;;;;;;;;;21.10;31.20;;;;;;464924;256;1141;-39
2022/04/05 10:35:59;;;;;;;;;;;21.10;31.20;;;;;;464844;256;1243;-39
2022/04/05 10:38:00;;;;;;;;;;;21.10;31.20;;;;;;464933;256;2201;-39
2022/04/05 10:40:01;;;;;;;;;;;21.10;31.20;;;;;;464919;256;1239;-39
2022/04/05 10:42:02;;;;;;;;;;;21.10;31.30;;;;;;464859;256;1285;-39
2022/04/05 10:44:04;;;;;;;;;;;21.10;31.20;;;;;;465095;256;1222;-39
2022/04/05 10:46:05;;;;;;;;;;;21.10;31.20;;;;;;464892;256;1320;-39
2022/04/05 10:48:06;;;;;;;;;;;21.10;31.20;;;;;;464737;256;1098;-39
2022/04/05 10:50:08;;;;;;;;;;;21.10;31.20;;;;;;464559;256;1121;-39
2022/04/05 10:52:09;;;;;;;;;;;21.10;31.20;;;;;;464419;256;1258;-39
2022/04/05 10:54:19;;;;;;;;;;;21.10;31.20;;;;;;464755;256;1130;-39
2022/04/05 10:56:20;;;;;;;;;;;21.10;31.20;;;;;;464623;256;1505;-39
2022/04/05 10:58:22;;;;;;;;;;;21.10;31.20;;;;;;464730;256;2197;-39
2022/04/05 11:00:23;;;;;;;;;;;21.10;31.20;;;;;;464540;256;1394;-39
2022/04/05 11:02:24;;;;;;;;;;;21.10;31.30;;;;;;464517;256;1240;-39
2022/04/05 11:04:28;;;;;;;;;;;21.10;31.30;;;;;;464675;256;1158;-39
2022/04/05 11:06:27;;;;;;;;;;;21.10;31.30;;;;;;464502;255;2313;-39
2022/04/05 11:08:29;;;;;;;;;;;21.10;31.30;;;;;;464764;256;1102;-39
2022/04/05 11:10:30;;;;;;;;;;;21.10;31.30;;;;;;464660;256;2055;-39
2022/04/05 11:12:31;;;;;;;;;;;21.10;31.40;;;;;;464787;256;1225;-39
2022/04/05 11:14:34;;;;;;;;;;;21.00;31.30;;;;;;464980;256;1135;-39
2022/04/05 11:16:34;;;;;;;;;;;21.10;31.40;;;;;;464709;256;2074;-39
2022/04/05 11:18:35;;;;;;;;;;;21.10;31.30;;;;;;464997;256;2266;-39
2022/04/05 11:20:37;;;;;;;;;;;21.10;31.40;;;;;;464859;256;1233;-39
2022/04/05 11:22:37;;;;;;;;;;;21.10;31.40;;;;;;464705;255;1258;-39
2022/04/05 11:24:39;;;;;;;;;;;21.10;31.40;;;;;;464808;256;1134;-39
2022/04/05 11:26:40;;;;;;;;;;;21.10;31.40;;;;;;464712;256;1259;-39
2022/04/05 11:28:41;;;;;;;;;;;21.10;31.40;;;;;;464859;256;1083;-39
2022/04/05 11:30:43;;;;;;;;;;;21.10;31.40;;;;;;464807;256;1278;-39
2022/04/05 11:32:44;;;;;;;;;;;21.10;31.40;;;;;;464890;256;1210;-39
2022/04/05 11:34:48;;;;;;;;;;;21.00;31.40;;;;;;464668;256;1230;-39
2022/04/05 11:36:47;;;;;;;;;;;21.10;31.40;;;;;;464982;256;1882;-39
2022/04/05 11:38:48;;;;;;;;;;;21.10;31.40;;;;;;465266;256;2194;-39
2022/04/05 11:40:50;;;;;;;;;;;21.10;31.40;;;;;;464764;256;1274;-39
2022/04/05 11:42:51;;;;;;;;;;;21.10;31.40;;;;;;464752;256;1143;-39
2022/04/05 11:44:52;;;;;;;;;;;21.10;31.50;;;;;;464900;256;1289;-39
2022/04/05 11:46:53;;;;;;;;;;;21.10;31.50;;;;;;464710;256;1254;-39
2022/04/05 11:48:55;;;;;;;;;;;21.10;31.50;;;;;;464850;256;1209;-39
2022/04/05 11:50:56;;;;;;;;;;;21.10;31.50;;;;;;464584;247;1346;-39
2022/04/05 11:52:57;;;;;;;;;;;21.10;31.40;;;;;;464772;256;1124;-39
2022/04/05 11:57:18;;;;;;;;;;;21.10;31.40;;;;;;464596;256;2138;-39
2022/04/05 11:59:20;;;;;;;;;;;21.10;31.40;;;;;;464831;256;1116;-39